Time,TemperatureF,DewpointF,PressureIn,WindDirection,WindDirectionDegrees,WindSpeedMPH,WindSpeedGustMPH,Humidity,HourlyPrecipIn,Conditions,Clouds,dailyrainin,SoftwareType,DateUTC
2013-04-03 00:00:00,37.0,29.0,-100.00,NW,318,6.0,8.0,70,-99.99,,,-99.99,,2013-04-03 06:00:00,
2013-04-03 00:32:00,37.0,29.0,-100.00,NW,318,6.0,8.0,70,-99.99,,,-99.99,,2013-04-03 06:32:00,
2013-04-03 00:42:00,37.0,29.0,-100.00,NW,318,6.0,8.0,70,-99.99,,,-99.99,,2013-04-03 06:42:00,
2013-04-03 00:52:00,37.0,29.0,-100.00,NW,318,6.0,8.0,70,-99.99,,,-99.99,,2013-04-03 06:52:00,
2013-04-03 01:00:00,37.0,23.0,-100.00,NW,318,5.0,7.0,56,-99.99,,,-99.99,,2013-04-03 07:00:00,
2013-04-03 01:33:00,37.0,23.0,-100.00,NW,318,5.0,7.0,56,-99.99,,,-99.99,,2013-04-03 07:33:00,
2013-04-03 01:42:00,37.0,23.0,-100.00,NW,318,5.0,7.0,56,-99.99,,,-99.99,,2013-04-03 07:42:00,
2013-04-03 01:53:00,37.0,23.0,-100.00,NW,318,5.0,7.0,56,-99.99,,,-99.99,,2013-04-03 07:53:00,
2013-04-03 02:00:00,38.0,17.0,-100.00,WNW,301,4.0,6.0,42,-99.99,,,-99.99,,2013-04-03 08:00:00,
2013-04-03 02:33:00,38.0,17.0,-100.00,WNW,301,4.0,6.0,42,-99.99,,,-99.99,,2013-04-03 08:33:00,
2013-04-03 02:43:00,38.0,17.0,-100.00,WNW,301,4.0,6.0,42,-99.99,,,-99.99,,2013-04-03 08:43:00,
2013-04-03 02:52:00,38.0,17.0,-100.00,WNW,301,4.0,6.0,42,-99.99,,,-99.99,,2013-04-03 08:52:00,
2013-04-03 03:00:00,37.0,16.0,-100.00,WNW,302,4.0,6.0,41,-99.99,,,-99.99,,2013-04-03 09:00:00,
2013-04-03 03:33:00,37.0,16.0,-100.00,WNW,302,4.0,6.0,41,-99.99,,,-99.99,,2013-04-03 09:33:00,
2013-04-03 03:43:00,37.0,16.0,-100.00,WNW,302,4.0,6.0,41,-99.99,,,-99.99,,2013-04-03 09:43:00,
2013-04-03 03:53:00,37.0,16.0,-100.00,WNW,302,4.0,6.0,41,-99.99,,,-99.99,,2013-04-03 09:53:00,
2013-04-03 04:33:00,37.0,12.0,-100.00,WNW,302,4.0,6.0,34,-99.99,,,-99.99,,2013-04-03 10:33:00,
2013-04-03 05:33:00,37.0,11.0,-100.00,WNW,298,4.0,5.0,33,-99.99,,,-99.99,,2013-04-03 11:33:00,
2013-04-03 06:00:00,37.0,17.0,-100.00,WNW,288,4.0,6.0,43,-99.99,,,-99.99,,2013-04-03 12:00:00,
2013-04-03 06:33:00,37.0,17.0,-100.00,WNW,288,4.0,6.0,43,-99.99,,,-99.99,,2013-04-03 12:33:00,
2013-04-03 06:42:00,37.0,17.0,-100.00,WNW,288,4.0,6.0,43,-99.99,,,-99.99,,2013-04-03 12:42:00,
2013-04-03 06:52:00,37.0,17.0,-100.00,WNW,288,4.0,6.0,43,-99.99,,,-99.99,,2013-04-03 12:52:00,
2013-04-03 07:00:00,36.0,19.0,-100.00,SE,134,2.0,5.0,48,-99.99,,,-99.99,,2013-04-03 13:00:00,
2013-04-03 07:32:00,36.0,19.0,-100.00,SE,134,2.0,5.0,48,-99.99,,,-99.99,,2013-04-03 13:32:00,
2013-04-03 07:42:00,36.0,19.0,-100.00,SE,134,2.0,5.0,48,-99.99,,,-99.99,,2013-04-03 13:42:00,
2013-04-03 07:52:00,36.0,19.0,-100.00,SE,134,2.0,5.0,48,-99.99,,,-99.99,,2013-04-03 13:52:00,
2013-04-03 08:00:00,36.0,19.0,-100.00,East,84,3.0,5.0,48,-99.99,,,-99.99,,2013-04-03 14:00:00,
2013-04-03 08:32:00,36.0,19.0,-100.00,East,84,3.0,5.0,48,-99.99,,,-99.99,,2013-04-03 14:32:00,
2013-04-03 08:43:00,36.0,19.0,-100.00,East,84,3.0,5.0,48,-99.99,,,-99.99,,2013-04-03 14:43:00,
2013-04-03 08:52:00,36.0,19.0,-100.00,East,84,3.0,5.0,48,-99.99,,,-99.99,,2013-04-03 14:52:00,
2013-04-03 09:00:00,39.0,22.0,-100.00,ESE,103,3.0,5.0,49,-99.99,,,-99.99,,2013-04-03 15:00:00,
2013-04-03 09:33:00,39.0,22.0,-100.00,ESE,103,3.0,5.0,49,-99.99,,,-99.99,,2013-04-03 15:33:00,
2013-04-03 09:43:00,39.0,22.0,-100.00,ESE,103,3.0,5.0,49,-99.99,,,-99.99,,2013-04-03 15:43:00,
2013-04-03 09:53:00,39.0,22.0,-100.00,ESE,103,3.0,5.0,49,-99.99,,,-99.99,,2013-04-03 15:53:00,
2013-04-03 10:00:00,40.0,28.0,-100.00,SSW,198,4.0,8.0,60,-99.99,,,-99.99,,2013-04-03 16:00:00,
2013-04-03 10:33:00,40.0,28.0,-100.00,SSW,198,4.0,8.0,60,-99.99,,,-99.99,,2013-04-03 16:33:00,
2013-04-03 10:44:00,40.0,28.0,-100.00,SSW,198,4.0,8.0,60,-99.99,,,-99.99,,2013-04-03 16:44:00,
2013-04-03 10:52:00,40.0,28.0,-100.00,SSW,198,4.0,8.0,60,-99.99,,,-99.99,,2013-04-03 16:52:00,
2013-04-03 11:00:00,39.0,27.0,-100.00,South,181,5.0,7.0,62,-99.99,,,-99.99,,2013-04-03 17:00:00,
2013-04-03 11:34:00,39.0,27.0,-100.00,South,181,5.0,7.0,62,-99.99,,,-99.99,,2013-04-03 17:34:00,
2013-04-03 11:46:00,39.0,27.0,-100.00,South,181,5.0,7.0,62,-99.99,,,-99.99,,2013-04-03 17:46:00,
2013-04-03 11:53:00,39.0,27.0,-100.00,South,181,5.0,7.0,62,-99.99,,,-99.99,,2013-04-03 17:53:00,
2013-04-03 12:00:00,42.0,26.0,-100.00,SSW,212,6.0,9.0,53,-99.99,,,-99.99,,2013-04-03 18:00:00,
2013-04-03 12:34:00,42.0,26.0,-100.00,SSW,212,6.0,9.0,53,-99.99,,,-99.99,,2013-04-03 18:34:00,
2013-04-03 12:43:00,42.0,26.0,-100.00,SSW,212,6.0,9.0,53,-99.99,,,-99.99,,2013-04-03 18:43:00,
2013-04-03 12:52:00,42.0,26.0,-100.00,SSW,212,6.0,9.0,53,-99.99,,,-99.99,,2013-04-03 18:52:00,
2013-04-03 13:00:00,42.0,31.0,-100.00,SSW,210,6.0,12.0,64,-99.99,,,-99.99,,2013-04-03 19:00:00,
2013-04-03 13:32:00,42.0,31.0,-100.00,SSW,210,6.0,12.0,64,-99.99,,,-99.99,,2013-04-03 19:32:00,
2013-04-03 13:42:00,42.0,31.0,-100.00,SSW,210,6.0,12.0,64,-99.99,,,-99.99,,2013-04-03 19:42:00,
2013-04-03 13:52:00,42.0,31.0,-100.00,SSW,210,6.0,12.0,64,-99.99,,,-99.99,,2013-04-03 19:52:00,
2013-04-03 14:00:00,42.0,28.0,-100.00,SSW,208,7.0,12.0,55,-99.99,,,-99.99,,2013-04-03 20:00:00,
2013-04-03 14:33:00,42.0,28.0,-100.00,SSW,208,7.0,12.0,55,-99.99,,,-99.99,,2013-04-03 20:33:00,
2013-04-03 14:42:00,42.0,28.0,-100.00,SSW,208,7.0,12.0,55,-99.99,,,-99.99,,2013-04-03 20:42:00,
2013-04-03 14:53:00,42.0,28.0,-100.00,SSW,208,7.0,12.0,55,-99.99,,,-99.99,,2013-04-03 20:53:00,
2013-04-03 15:00:00,45.0,32.0,-100.00,SSW,213,7.0,13.0,59,-99.99,,,-99.99,,2013-04-03 21:00:00,
2013-04-03 15:33:00,45.0,32.0,-100.00,SSW,213,7.0,13.0,59,-99.99,,,-99.99,,2013-04-03 21:33:00,
2013-04-03 15:42:00,45.0,32.0,-100.00,SSW,213,7.0,13.0,59,-99.99,,,-99.99,,2013-04-03 21:42:00,
2013-04-03 15:52:00,45.0,32.0,-100.00,SSW,213,7.0,13.0,59,-99.99,,,-99.99,,2013-04-03 21:52:00,
2013-04-03 16:00:00,43.0,27.0,-100.00,WSW,242,11.0,17.0,53,-99.99,,,-99.99,,2013-04-03 22:00:00,
2013-04-03 16:33:00,43.0,27.0,-100.00,WSW,242,11.0,17.0,53,-99.99,,,-99.99,,2013-04-03 22:33:00,
2013-04-03 16:42:00,43.0,27.0,-100.00,WSW,242,11.0,17.0,53,-99.99,,,-99.99,,2013-04-03 22:42:00,
2013-04-03 16:52:00,43.0,27.0,-100.00,WSW,242,11.0,17.0,53,-99.99,,,-99.99,,2013-04-03 22:52:00,
2013-04-03 17:00:00,44.0,30.0,-100.00,SW,232,9.0,15.0,58,-99.99,,,-99.99,,2013-04-03 23:00:00,
2013-04-03 17:33:00,44.0,30.0,-100.00,SW,232,9.0,15.0,58,-99.99,,,-99.99,,2013-04-03 23:33:00,
2013-04-03 17:43:00,44.0,30.0,-100.00,SW,232,9.0,15.0,58,-99.99,,,-99.99,,2013-04-03 23:43:00,
2013-04-03 17:54:00,44.0,30.0,-100.00,SW,232,9.0,15.0,58,-99.99,,,-99.99,,2013-04-03 23:54:00,
2013-04-03 18:00:00,42.0,31.0,-100.00,WSW,255,11.0,16.0,63,-99.99,,,-99.99,,2013-04-04 00:00:00,
2013-04-03 18:32:00,42.0,31.0,-100.00,WSW,255,11.0,16.0,63,-99.99,,,-99.99,,2013-04-04 00:32:00,
2013-04-03 18:43:00,42.0,31.0,-100.00,WSW,255,11.0,16.0,63,-99.99,,,-99.99,,2013-04-04 00:43:00,
2013-04-03 18:52:00,42.0,31.0,-100.00,WSW,255,11.0,16.0,63,-99.99,,,-99.99,,2013-04-04 00:52:00,
2013-04-03 19:00:00,42.0,32.0,-100.00,WSW,250,9.0,12.0,67,-99.99,,,-99.99,,2013-04-04 01:00:00,
2013-04-03 19:32:00,42.0,32.0,-100.00,WSW,250,9.0,12.0,67,-99.99,,,-99.99,,2013-04-04 01:32:00,
2013-04-03 19:43:00,42.0,32.0,-100.00,WSW,250,9.0,12.0,67,-99.99,,,-99.99,,2013-04-04 01:43:00,
2013-04-03 19:52:00,42.0,32.0,-100.00,WSW,250,9.0,12.0,67,-99.99,,,-99.99,,2013-04-04 01:52:00,
2013-04-03 20:00:00,41.0,31.0,-100.00,WSW,238,5.0,9.0,68,-99.99,,,-99.99,,2013-04-04 02:00:00,
2013-04-03 20:32:00,41.0,31.0,-100.00,WSW,238,5.0,9.0,68,-99.99,,,-99.99,,2013-04-04 02:32:00,
2013-04-03 20:42:00,41.0,31.0,-100.00,WSW,238,5.0,9.0,68,-99.99,,,-99.99,,2013-04-04 02:42:00,
2013-04-03 20:52:00,41.0,31.0,-100.00,WSW,238,5.0,9.0,68,-99.99,,,-99.99,,2013-04-04 02:52:00,
2013-04-03 21:00:00,39.0,30.0,-100.00,SW,228,3.0,5.0,69,-99.99,,,-99.99,,2013-04-04 03:00:00,
2013-04-03 21:34:00,39.0,30.0,-100.00,SW,228,3.0,5.0,69,-99.99,,,-99.99,,2013-04-04 03:34:00,
2013-04-03 21:45:00,39.0,30.0,-100.00,SW,228,3.0,5.0,69,-99.99,,,-99.99,,2013-04-04 03:45:00,
2013-04-03 21:53:00,39.0,30.0,-100.00,SW,228,3.0,5.0,69,-99.99,,,-99.99,,2013-04-04 03:53:00,
2013-04-03 22:00:00,39.0,30.0,-100.00,SW,214,4.0,5.0,70,-99.99,,,-99.99,,2013-04-04 04:00:00,
2013-04-03 22:34:00,39.0,30.0,-100.00,SW,214,4.0,5.0,70,-99.99,,,-99.99,,2013-04-04 04:34:00,
2013-04-03 22:43:00,39.0,30.0,-100.00,SW,214,4.0,5.0,70,-99.99,,,-99.99,,2013-04-04 04:43:00,
2013-04-03 22:53:00,39.0,30.0,-100.00,SW,214,4.0,5.0,70,-99.99,,,-99.99,,2013-04-04 04:53:00,
2013-04-03 23:00:00,39.0,29.0,-100.00,South,174,4.0,5.0,67,-99.99,,,-99.99,,2013-04-04 05:00:00,
2013-04-03 23:32:00,39.0,29.0,-100.00,South,174,4.0,5.0,67,-99.99,,,-99.99,,2013-04-04 05:32:00,
2013-04-03 23:42:00,39.0,29.0,-100.00,South,174,4.0,5.0,67,-99.99,,,-99.99,,2013-04-04 05:42:00,
2013-04-03 23:52:00,39.0,29.0,-100.00,South,174,4.0,5.0,67,-99.99,,,-99.99,,2013-04-04 05:52:00,